sensor_id;sensor_type;location;lat;lon;timestamp;pressure;altitude;pressure_sealevel;temperature;humidity
66945;BME280;53853;51.982;5.928;2022-09-03T00:01:08;101104.13;;;18.67;43.17
66945;BME280;53853;51.982;5.928;2022-09-03T00:03:45;101103.91;;;18.61;43.23
66945;BME280;53853;51.982;5.928;2022-09-03T00:06:20;101109.50;;;18.60;43.18
66945;BME280;53853;51.982;5.928;2022-09-03T00:08:56;101100.97;;;18.56;43.07
66945;BME280;53853;51.982;5.928;2022-09-03T00:11:29;101105.53;;;18.56;43.17
66945;BME280;53853;51.982;5.928;2022-09-03T00:14:08;101094.94;;;18.54;43.38
66945;BME280;53853;51.982;5.928;2022-09-03T00:16:47;101101.53;;;18.52;43.44
66945;BME280;53853;51.982;5.928;2022-09-03T00:19:20;101101.09;;;18.48;43.53
66945;BME280;53853;51.982;5.928;2022-09-03T00:21:57;101106.91;;;18.45;43.38
66945;BME280;53853;51.982;5.928;2022-09-03T00:24:32;101099.00;;;18.43;43.42
66945;BME280;53853;51.982;5.928;2022-09-03T00:27:07;101098.56;;;18.40;43.83
66945;BME280;53853;51.982;5.928;2022-09-03T00:29:48;101098.09;;;18.36;43.73
66945;BME280;53853;51.982;5.928;2022-09-03T00:32:23;101100.97;;;18.35;43.85
66945;BME280;53853;51.982;5.928;2022-09-03T00:35:00;101097.66;;;18.33;44.15
66945;BME280;53853;51.982;5.928;2022-09-03T00:37:33;101100.53;;;18.31;44.06
66945;BME280;53853;51.982;5.928;2022-09-03T00:40:05;101105.50;;;18.27;44.14
66945;BME280;53853;51.982;5.928;2022-09-03T00:42:46;101098.63;;;18.25;44.40
66945;BME280;53853;51.982;5.928;2022-09-03T00:45:31;101109.81;;;18.22;44.69
66945;BME280;53853;51.982;5.928;2022-09-03T00:48:12;101106.66;;;18.18;44.59
66945;BME280;53853;51.982;5.928;2022-09-03T00:50:52;101100.63;;;18.16;44.64
66945;BME280;53853;51.982;5.928;2022-09-03T00:53:32;101104.53;;;18.14;44.52
66945;BME280;53853;51.982;5.928;2022-09-03T00:56:07;101102.22;;;18.10;44.61
66945;BME280;53853;51.982;5.928;2022-09-03T00:58:54;101101.59;;;18.08;44.84
66945;BME280;53853;51.982;5.928;2022-09-03T01:01:35;101101.16;;;18.05;45.17
66945;BME280;53853;51.982;5.928;2022-09-03T01:04:23;101096.97;;;18.02;44.95
66945;BME280;53853;51.982;5.928;2022-09-03T01:07:02;101099.22;;;17.99;45.14
66945;BME280;53853;51.982;5.928;2022-09-03T01:09:45;101096.72;;;17.97;45.37
66945;BME280;53853;51.982;5.928;2022-09-03T01:12:24;101099.13;;;17.92;45.19
66945;BME280;53853;51.982;5.928;2022-09-03T01:15:03;101100.19;;;17.91;45.60
66945;BME280;53853;51.982;5.928;2022-09-03T01:17:55;101100.56;;;17.88;45.71
66945;BME280;53853;51.982;5.928;2022-09-03T01:20:50;101101.56;;;17.87;45.75
66945;BME280;53853;51.982;5.928;2022-09-03T01:23:42;101109.19;;;17.83;46.07
66945;BME280;53853;51.982;5.928;2022-09-03T01:26:29;101104.19;;;17.80;46.09
66945;BME280;53853;51.982;5.928;2022-09-03T01:29:10;101109.13;;;17.77;46.48
66945;BME280;53853;51.982;5.928;2022-09-03T01:31:50;101108.47;;;17.74;46.09
66945;BME280;53853;51.982;5.928;2022-09-03T01:34:33;101099.94;;;17.71;46.18
66945;BME280;53853;51.982;5.928;2022-09-03T01:37:14;101106.53;;;17.68;46.37
66945;BME280;53853;51.982;5.928;2022-09-03T01:39:56;101112.13;;;17.67;46.09
66945;BME280;53853;51.982;5.928;2022-09-03T01:42:38;101113.16;;;17.66;46.46
66945;BME280;53853;51.982;5.928;2022-09-03T01:45:29;101114.53;;;17.62;46.93
66945;BME280;53853;51.982;5.928;2022-09-03T01:48:13;101105.19;;;17.58;46.47
66945;BME280;53853;51.982;5.928;2022-09-03T01:50:53;101110.75;;;17.56;46.60
66945;BME280;53853;51.982;5.928;2022-09-03T01:53:39;101112.97;;;17.52;46.50
66945;BME280;53853;51.982;5.928;2022-09-03T01:56:27;101113.84;;;17.53;46.59
66945;BME280;53853;51.982;5.928;2022-09-03T01:59:06;101111.31;;;17.51;46.74
66945;BME280;53853;51.982;5.928;2022-09-03T02:01:42;101107.16;;;17.49;46.47
66945;BME280;53853;51.982;5.928;2022-09-03T02:04:17;101118.97;;;17.48;46.57
66945;BME280;53853;51.982;5.928;2022-09-03T02:06:50;101105.88;;;17.45;46.85
66945;BME280;53853;51.982;5.928;2022-09-03T02:09:20;101109.56;;;17.44;46.94
66945;BME280;53853;51.982;5.928;2022-09-03T02:11:53;101109.94;;;17.41;47.02
66945;BME280;53853;51.982;5.928;2022-09-03T02:14:26;101106.81;;;17.37;46.93
66945;BME280;53853;51.982;5.928;2022-09-03T02:17:02;101111.34;;;17.36;47.02
66945;BME280;53853;51.982;5.928;2022-09-03T02:19:34;101109.03;;;17.33;47.12
66945;BME280;53853;51.982;5.928;2022-09-03T02:22:05;101106.06;;;17.28;47.15
66945;BME280;53853;51.982;5.928;2022-09-03T02:24:35;101108.47;;;17.23;47.09
66945;BME280;53853;51.982;5.928;2022-09-03T02:27:04;101110.53;;;17.21;47.25
66945;BME280;53853;51.982;5.928;2022-09-03T02:29:34;101105.53;;;17.18;47.31
66945;BME280;53853;51.982;5.928;2022-09-03T02:32:07;101109.22;;;17.17;47.43
66945;BME280;53853;51.982;5.928;2022-09-03T02:34:36;101109.59;;;17.14;47.50
66945;BME280;53853;51.982;5.928;2022-09-03T02:37:12;101105.22;;;17.13;47.70
66945;BME280;53853;51.982;5.928;2022-09-03T02:39:42;101105.44;;;17.11;47.55
66945;BME280;53853;51.982;5.928;2022-09-03T02:42:13;101113.03;;;17.08;47.84
66945;BME280;53853;51.982;5.928;2022-09-03T02:44:46;101109.53;;;17.07;47.46
66945;BME280;53853;51.982;5.928;2022-09-03T02:47:19;101110.72;;;17.05;47.69
66945;BME280;53853;51.982;5.928;2022-09-03T02:49:49;101104.03;;;17.00;47.95
66945;BME280;53853;51.982;5.928;2022-09-03T02:52:19;101107.75;;;16.99;47.79
66945;BME280;53853;51.982;5.928;2022-09-03T02:54:49;101103.56;;;16.97;48.04
66945;BME280;53853;51.982;5.928;2022-09-03T02:57:18;101093.16;;;16.94;47.78
66945;BME280;53853;51.982;5.928;2022-09-03T02:59:48;101100.22;;;16.95;47.61
66945;BME280;53853;51.982;5.928;2022-09-03T03:02:21;101104.97;;;16.93;48.07
66945;BME280;53853;51.982;5.928;2022-09-03T03:04:50;101100.78;;;16.90;48.10
66945;BME280;53853;51.982;5.928;2022-09-03T03:07:21;101100.13;;;16.88;48.25
66945;BME280;53853;51.982;5.928;2022-09-03T03:09:52;101090.56;;;16.86;48.33
66945;BME280;53853;51.982;5.928;2022-09-03T03:12:22;101097.78;;;16.85;48.27
66945;BME280;53853;51.982;5.928;2022-09-03T03:14:52;101091.94;;;16.81;48.43
66945;BME280;53853;51.982;5.928;2022-09-03T03:17:24;101093.13;;;16.79;48.40
66945;BME280;53853;51.982;5.928;2022-09-03T03:19:54;101085.44;;;16.76;48.40
66945;BME280;53853;51.982;5.928;2022-09-03T03:22:24;101090.00;;;16.75;48.40
66945;BME280;53853;51.982;5.928;2022-09-03T03:24:54;101092.03;;;16.73;48.72
66945;BME280;53853;51.982;5.928;2022-09-03T03:27:23;101088.50;;;16.73;48.62
66945;BME280;53853;51.982;5.928;2022-09-03T03:29:53;101087.84;;;16.71;48.83
66945;BME280;53853;51.982;5.928;2022-09-03T03:32:26;101088.84;;;16.70;48.76
66945;BME280;53853;51.982;5.928;2022-09-03T03:34:56;101088.84;;;16.70;48.66
66945;BME280;53853;51.982;5.928;2022-09-03T03:37:26;101095.63;;;16.65;48.74
66945;BME280;53853;51.982;5.928;2022-09-03T03:39:55;101093.78;;;16.66;48.57
66945;BME280;53853;51.982;5.928;2022-09-03T03:42:25;101099.34;;;16.64;48.60
66945;BME280;53853;51.982;5.928;2022-09-03T03:44:55;101093.31;;;16.62;48.72
66945;BME280;53853;51.982;5.928;2022-09-03T03:47:27;101087.25;;;16.60;48.77
66945;BME280;53853;51.982;5.928;2022-09-03T03:49:58;101085.63;;;16.59;49.03
66945;BME280;53853;51.982;5.928;2022-09-03T03:52:28;101081.41;;;16.57;49.12
66945;BME280;53853;51.982;5.928;2022-09-03T03:54:57;101093.19;;;16.56;49.14
66945;BME280;53853;51.982;5.928;2022-09-03T03:57:30;101089.22;;;16.52;49.30
66945;BME280;53853;51.982;5.928;2022-09-03T04:00:00;101086.69;;;16.50;49.27
66945;BME280;53853;51.982;5.928;2022-09-03T04:02:43;101085.03;;;16.49;49.05
66945;BME280;53853;51.982;5.928;2022-09-03T04:05:13;101081.69;;;16.47;49.33
66945;BME280;53853;51.982;5.928;2022-09-03T04:07:43;101076.66;;;16.44;49.47
66945;BME280;53853;51.982;5.928;2022-09-03T04:10:13;101073.34;;;16.42;49.35
66945;BME280;53853;51.982;5.928;2022-09-03T04:12:43;101077.03;;;16.41;49.37
66945;BME280;53853;51.982;5.928;2022-09-03T04:15:13;101075.34;;;16.40;49.25
66945;BME280;53853;51.982;5.928;2022-09-03T04:17:45;101081.78;;;16.39;49.32
66945;BME280;53853;51.982;5.928;2022-09-03T04:20:15;101077.41;;;16.38;49.54
66945;BME280;53853;51.982;5.928;2022-09-03T04:22:45;101078.41;;;16.37;49.41
66945;BME280;53853;51.982;5.928;2022-09-03T04:25:15;101083.31;;;16.33;49.60
66945;BME280;53853;51.982;5.928;2022-09-03T04:27:45;101070.91;;;16.32;49.52
66945;BME280;53853;51.982;5.928;2022-09-03T04:30:15;101082.69;;;16.31;49.53
66945;BME280;53853;51.982;5.928;2022-09-03T04:32:49;101085.72;;;16.28;49.76
66945;BME280;53853;51.982;5.928;2022-09-03T04:35:23;101078.19;;;16.23;49.73
66945;BME280;53853;51.982;5.928;2022-09-03T04:37:59;101077.56;;;16.21;49.89
66945;BME280;53853;51.982;5.928;2022-09-03T04:40:30;101073.38;;;16.19;49.76
66945;BME280;53853;51.982;5.928;2022-09-03T04:42:59;101070.84;;;16.17;49.81
66945;BME280;53853;51.982;5.928;2022-09-03T04:45:29;101076.59;;;16.14;49.88
66945;BME280;53853;51.982;5.928;2022-09-03T04:48:03;101070.56;;;16.12;49.93
66945;BME280;53853;51.982;5.928;2022-09-03T04:50:36;101075.28;;;16.10;50.05
66945;BME280;53853;51.982;5.928;2022-09-03T04:53:06;101073.63;;;16.09;50.16
66945;BME280;53853;51.982;5.928;2022-09-03T04:55:37;101068.59;;;16.06;50.24
66945;BME280;53853;51.982;5.928;2022-09-03T04:58:06;101074.81;;;16.06;50.30
66945;BME280;53853;51.982;5.928;2022-09-03T05:00:37;101068.97;;;16.03;50.13
66945;BME280;53853;51.982;5.928;2022-09-03T05:03:09;101077.03;;;16.03;50.37
66945;BME280;53853;51.982;5.928;2022-09-03T05:05:39;101077.19;;;16.01;50.34
66945;BME280;53853;51.982;5.928;2022-09-03T05:08:09;101082.56;;;16.01;49.99
66945;BME280;53853;51.982;5.928;2022-09-03T05:10:39;101067.94;;;16.04;49.68
66945;BME280;53853;51.982;5.928;2022-09-03T05:13:08;101075.16;;;16.03;50.08
66945;BME280;53853;51.982;5.928;2022-09-03T05:15:38;101071.66;;;16.03;49.88
66945;BME280;53853;51.982;5.928;2022-09-03T05:18:14;101071.66;;;16.03;50.10
66945;BME280;53853;51.982;5.928;2022-09-03T05:20:43;101070.63;;;16.04;50.07
66945;BME280;53853;51.982;5.928;2022-09-03T05:23:14;101076.00;;;16.04;49.81
66945;BME280;53853;51.982;5.928;2022-09-03T05:25:54;101083.91;;;16.05;49.90
66945;BME280;53853;51.982;5.928;2022-09-03T05:28:25;101080.00;;;16.08;49.96
66945;BME280;53853;51.982;5.928;2022-09-03T05:30:59;101081.50;;;16.10;49.89
66945;BME280;53853;51.982;5.928;2022-09-03T05:33:32;101086.88;;;16.10;49.77
66945;BME280;53853;51.982;5.928;2022-09-03T05:36:05;101080.31;;;16.13;49.75
66945;BME280;53853;51.982;5.928;2022-09-03T05:38:36;101074.75;;;16.15;49.94
66945;BME280;53853;51.982;5.928;2022-09-03T05:41:07;101076.59;;;16.14;49.89
66945;BME280;53853;51.982;5.928;2022-09-03T05:43:38;101076.22;;;16.17;49.81
66945;BME280;53853;51.982;5.928;2022-09-03T05:46:10;101074.19;;;16.19;49.75
66945;BME280;53853;51.982;5.928;2022-09-03T05:48:44;101078.56;;;16.20;49.81
66945;BME280;53853;51.982;5.928;2022-09-03T05:51:17;101084.22;;;16.25;49.59
66945;BME280;53853;51.982;5.928;2022-09-03T05:53:48;101082.56;;;16.24;49.68
66945;BME280;53853;51.982;5.928;2022-09-03T05:56:20;101076.16;;;16.25;49.82
66945;BME280;53853;51.982;5.928;2022-09-03T05:58:52;101074.97;;;16.28;49.97
66945;BME280;53853;51.982;5.928;2022-09-03T06:01:24;101075.63;;;16.30;49.59
66945;BME280;53853;51.982;5.928;2022-09-03T06:03:58;101083.31;;;16.33;49.74
66945;BME280;53853;51.982;5.928;2022-09-03T06:06:30;101080.09;;;16.38;49.55
66945;BME280;53853;51.982;5.928;2022-09-03T06:09:02;101083.25;;;16.41;49.53
66945;BME280;53853;51.982;5.928;2022-09-03T06:11:34;101080.38;;;16.43;49.53
66945;BME280;53853;51.982;5.928;2022-09-03T06:14:05;101082.50;;;16.47;49.67
66945;BME280;53853;51.982;5.928;2022-09-03T06:16:37;101091.06;;;16.51;49.64
66945;BME280;53853;51.982;5.928;2022-09-03T06:19:10;101086.34;;;16.53;49.55
66945;BME280;53853;51.982;5.928;2022-09-03T06:21:42;101086.81;;;16.57;49.71
66945;BME280;53853;51.982;5.928;2022-09-03T06:24:13;101086.44;;;16.60;49.66
66945;BME280;53853;51.982;5.928;2022-09-03T06:26:44;101086.72;;;16.65;49.59
66945;BME280;53853;51.982;5.928;2022-09-03T06:29:14;101084.50;;;16.69;49.38
66945;BME280;53853;51.982;5.928;2022-09-03T06:31:45;101084.97;;;16.72;49.55
66945;BME280;53853;51.982;5.928;2022-09-03T06:34:19;101086.44;;;16.75;49.60
66945;BME280;53853;51.982;5.928;2022-09-03T06:36:51;101093.13;;;16.79;49.37
66945;BME280;53853;51.982;5.928;2022-09-03T06:39:21;101088.41;;;16.81;49.38
66945;BME280;53853;51.982;5.928;2022-09-03T06:41:52;101095.28;;;16.83;49.60
66945;BME280;53853;51.982;5.928;2022-09-03T06:44:33;101098.47;;;16.87;49.50
66945;BME280;53853;51.982;5.928;2022-09-03T06:47:03;101096.06;;;16.92;49.30
66945;BME280;53853;51.982;5.928;2022-09-03T06:49:36;101091.59;;;16.99;49.45
66945;BME280;53853;51.982;5.928;2022-09-03T06:52:05;101086.09;;;17.08;49.16
66945;BME280;53853;51.982;5.928;2022-09-03T06:54:35;101098.84;;;17.14;49.43
66945;BME280;53853;51.982;5.928;2022-09-03T06:57:06;101090.38;;;17.17;49.14
66945;BME280;53853;51.982;5.928;2022-09-03T06:59:36;101080.25;;;17.19;49.41
66945;BME280;53853;51.982;5.928;2022-09-03T07:02:06;101087.94;;;17.22;49.47
66945;BME280;53853;51.982;5.928;2022-09-03T07:04:38;101086.38;;;17.28;49.33
66945;BME280;53853;51.982;5.928;2022-09-03T07:07:08;101088.13;;;17.35;49.34
66945;BME280;53853;51.982;5.928;2022-09-03T07:09:39;101090.06;;;17.42;49.13
66945;BME280;53853;51.982;5.928;2022-09-03T07:12:09;101091.34;;;17.46;48.83
66945;BME280;53853;51.982;5.928;2022-09-03T07:14:41;101091.44;;;17.52;48.83
66945;BME280;53853;51.982;5.928;2022-09-03T07:17:11;101096.25;;;17.57;48.92
66945;BME280;53853;51.982;5.928;2022-09-03T07:19:44;101094.66;;;17.63;49.20
66945;BME280;53853;51.982;5.928;2022-09-03T07:22:13;101101.34;;;17.67;48.97
66945;BME280;53853;51.982;5.928;2022-09-03T07:24:43;101099.75;;;17.72;49.09
66945;BME280;53853;51.982;5.928;2022-09-03T07:27:13;101095.28;;;17.80;48.94
66945;BME280;53853;51.982;5.928;2022-09-03T07:29:43;101096.16;;;17.87;48.97
66945;BME280;53853;51.982;5.928;2022-09-03T07:32:13;101095.22;;;17.95;48.59
66945;BME280;53853;51.982;5.928;2022-09-03T07:34:45;101092.59;;;18.01;48.93
66945;BME280;53853;51.982;5.928;2022-09-03T07:37:18;101095.81;;;18.12;48.65
66945;BME280;53853;51.982;5.928;2022-09-03T07:39:48;101096.06;;;18.17;48.53
66945;BME280;53853;51.982;5.928;2022-09-03T07:42:18;101091.16;;;18.27;48.34
66945;BME280;53853;51.982;5.928;2022-09-03T07:44:48;101089.38;;;18.34;48.14
66945;BME280;53853;51.982;5.928;2022-09-03T07:47:18;101087.38;;;18.43;47.77
66945;BME280;53853;51.982;5.928;2022-09-03T07:49:51;101087.41;;;18.50;47.42
66945;BME280;53853;51.982;5.928;2022-09-03T07:52:24;101084.56;;;18.58;47.40
66945;BME280;53853;51.982;5.928;2022-09-03T07:54:54;101091.28;;;18.69;47.53
66945;BME280;53853;51.982;5.928;2022-09-03T07:57:25;101087.22;;;18.79;47.28
66945;BME280;53853;51.982;5.928;2022-09-03T07:59:55;101089.78;;;18.88;47.05
66945;BME280;53853;51.982;5.928;2022-09-03T08:02:25;101088.78;;;18.95;46.50
66945;BME280;53853;51.982;5.928;2022-09-03T08:05:00;101090.66;;;19.01;46.45
66945;BME280;53853;51.982;5.928;2022-09-03T08:07:30;101087.44;;;19.13;46.12
66945;BME280;53853;51.982;5.928;2022-09-03T08:10:00;101088.47;;;19.18;45.66
66945;BME280;53853;51.982;5.928;2022-09-03T08:12:30;101089.78;;;19.29;45.47
66945;BME280;53853;51.982;5.928;2022-09-03T08:15:01;101088.16;;;19.35;45.31
66945;BME280;53853;51.982;5.928;2022-09-03T08:17:31;101088.38;;;19.40;45.19
66945;BME280;53853;51.982;5.928;2022-09-03T08:20:03;101084.47;;;19.49;45.35
66945;BME280;53853;51.982;5.928;2022-09-03T08:22:33;101089.28;;;19.61;45.01
66945;BME280;53853;51.982;5.928;2022-09-03T08:25:04;101096.16;;;19.70;44.95
66945;BME280;53853;51.982;5.928;2022-09-03T08:27:34;101090.59;;;19.78;44.90
66945;BME280;53853;51.982;5.928;2022-09-03T08:30:05;101093.72;;;19.88;45.13
66945;BME280;53853;51.982;5.928;2022-09-03T08:32:37;101097.69;;;19.99;43.96
66945;BME280;53853;51.982;5.928;2022-09-03T08:35:10;101096.66;;;20.00;43.63
66945;BME280;53853;51.982;5.928;2022-09-03T08:37:41;101091.88;;;20.09;43.67
66945;BME280;53853;51.982;5.928;2022-09-03T08:40:11;101096.06;;;20.18;43.67
66945;BME280;53853;51.982;5.928;2022-09-03T08:42:48;101096.69;;;20.27;43.38
66945;BME280;53853;51.982;5.928;2022-09-03T08:45:24;101090.22;;;20.35;42.41
66945;BME280;53853;51.982;5.928;2022-09-03T08:48:00;101092.94;;;20.41;42.47
66945;BME280;53853;51.982;5.928;2022-09-03T08:50:39;101100.22;;;20.54;42.20
66945;BME280;53853;51.982;5.928;2022-09-03T08:53:16;101095.41;;;20.63;42.13
66945;BME280;53853;51.982;5.928;2022-09-03T08:55:51;101090.00;;;20.70;42.17
66945;BME280;53853;51.982;5.928;2022-09-03T08:58:24;101096.88;;;20.79;42.10
66945;BME280;53853;51.982;5.928;2022-09-03T09:00:58;101094.34;;;20.91;42.18
66945;BME280;53853;51.982;5.928;2022-09-03T09:03:41;101086.81;;;20.99;41.01
66945;BME280;53853;51.982;5.928;2022-09-03T09:06:22;101088.69;;;21.06;40.98
66945;BME280;53853;51.982;5.928;2022-09-03T09:09:05;101097.84;;;21.11;40.97
66945;BME280;53853;51.982;5.928;2022-09-03T09:11:48;101090.50;;;21.18;41.43
66945;BME280;53853;51.982;5.928;2022-09-03T09:14:25;101090.03;;;21.28;41.39
66945;BME280;53853;51.982;5.928;2022-09-03T09:17:08;101093.16;;;21.39;41.46
66945;BME280;53853;51.982;5.928;2022-09-03T09:19:48;101087.88;;;21.50;40.39
66945;BME280;53853;51.982;5.928;2022-09-03T09:22:26;101083.88;;;21.60;40.19
66945;BME280;53853;51.982;5.928;2022-09-03T09:25:00;101078.19;;;21.68;40.20
66945;BME280;53853;51.982;5.928;2022-09-03T09:27:34;101077.34;;;21.74;40.27
66945;BME280;53853;51.982;5.928;2022-09-03T09:30:17;101085.44;;;21.81;40.53
66945;BME280;53853;51.982;5.928;2022-09-03T09:32:47;101076.41;;;21.87;40.18
66945;BME280;53853;51.982;5.928;2022-09-03T09:35:18;101078.88;;;21.95;39.04
66945;BME280;53853;51.982;5.928;2022-09-03T09:37:52;101079.88;;;22.01;39.17
66945;BME280;53853;51.982;5.928;2022-09-03T09:40:30;101086.31;;;22.06;39.64
66945;BME280;53853;51.982;5.928;2022-09-03T09:43:05;101078.78;;;22.08;39.15
66945;BME280;53853;51.982;5.928;2022-09-03T09:45:38;101084.78;;;22.17;39.39
66945;BME280;53853;51.982;5.928;2022-09-03T09:48:15;101082.81;;;22.24;39.39
66945;BME280;53853;51.982;5.928;2022-09-03T09:50:46;101082.34;;;22.34;39.39
66945;BME280;53853;51.982;5.928;2022-09-03T09:53:19;101088.56;;;22.41;39.11
66945;BME280;53853;51.982;5.928;2022-09-03T09:55:53;101090.63;;;22.46;38.55
66945;BME280;53853;51.982;5.928;2022-09-03T09:58:26;101083.00;;;22.55;38.31
66945;BME280;53853;51.982;5.928;2022-09-03T10:00:58;101084.06;;;22.54;38.06
66945;BME280;53853;51.982;5.928;2022-09-03T10:03:31;101077.13;;;22.58;38.40
66945;BME280;53853;51.982;5.928;2022-09-03T10:06:08;101078.72;;;22.66;38.46
66945;BME280;53853;51.982;5.928;2022-09-03T10:09:03;101074.88;;;22.73;38.85
66945;BME280;53853;51.982;5.928;2022-09-03T10:11:34;101082.13;;;22.79;37.95
66945;BME280;53853;51.982;5.928;2022-09-03T10:14:12;101074.72;;;22.87;37.79
66945;BME280;53853;51.982;5.928;2022-09-03T10:16:47;101078.00;;;22.95;37.57
66945;BME280;53853;51.982;5.928;2022-09-03T10:19:22;101081.66;;;23.01;37.55
66945;BME280;53853;51.982;5.928;2022-09-03T10:22:02;101069.88;;;23.07;37.68
66945;BME280;53853;51.982;5.928;2022-09-03T10:24:43;101078.63;;;23.16;36.89
66945;BME280;53853;51.982;5.928;2022-09-03T10:27:17;101069.16;;;23.19;37.04
66945;BME280;53853;51.982;5.928;2022-09-03T10:29:48;101068.25;;;23.25;37.18
66945;BME280;53853;51.982;5.928;2022-09-03T10:32:27;101075.25;;;23.32;37.06
66945;BME280;53853;51.982;5.928;2022-09-03T10:35:05;101071.25;;;23.35;36.67
66945;BME280;53853;51.982;5.928;2022-09-03T10:37:42;101073.06;;;23.41;36.69
66945;BME280;53853;51.982;5.928;2022-09-03T10:40:27;101070.25;;;23.48;36.74
66945;BME280;53853;51.982;5.928;2022-09-03T10:43:13;101067.91;;;23.51;36.89
66945;BME280;53853;51.982;5.928;2022-09-03T10:45:53;101060.94;;;23.56;36.59
66945;BME280;53853;51.982;5.928;2022-09-03T10:48:46;101062.13;;;23.60;36.55
66945;BME280;53853;51.982;5.928;2022-09-03T10:51:21;101067.09;;;23.63;36.58
66945;BME280;53853;51.982;5.928;2022-09-03T10:54:14;101070.56;;;23.70;36.63
66945;BME280;53853;51.982;5.928;2022-09-03T10:56:53;101063.97;;;23.78;36.15
66945;BME280;53853;51.982;5.928;2022-09-03T10:59:47;101066.81;;;23.83;36.52
66945;BME280;53853;51.982;5.928;2022-09-03T11:02:41;101059.16;;;23.92;35.99
66945;BME280;53853;51.982;5.928;2022-09-03T11:05:17;101064.16;;;23.95;36.14
66945;BME280;53853;51.982;5.928;2022-09-03T11:07:53;101057.19;;;23.99;36.03
66945;BME280;53853;51.982;5.928;2022-09-03T11:10:28;101065.00;;;24.07;35.49
66945;BME280;53853;51.982;5.928;2022-09-03T11:13:07;101063.47;;;24.11;35.16
66945;BME280;53853;51.982;5.928;2022-09-03T11:15:41;101055.09;;;24.13;35.53
66945;BME280;53853;51.982;5.928;2022-09-03T11:18:19;101055.44;;;24.16;34.72
66945;BME280;53853;51.982;5.928;2022-09-03T11:20:52;101047.84;;;24.18;35.07
66945;BME280;53853;51.982;5.928;2022-09-03T11:23:28;101048.22;;;24.22;34.45
66945;BME280;53853;51.982;5.928;2022-09-03T11:26:06;101050.34;;;24.20;34.47
66945;BME280;53853;51.982;5.928;2022-09-03T11:28:45;101052.34;;;24.24;34.79
66945;BME280;53853;51.982;5.928;2022-09-03T11:31:29;101046.78;;;24.31;34.78
66945;BME280;53853;51.982;5.928;2022-09-03T11:34:06;101050.47;;;24.37;34.46
66945;BME280;53853;51.982;5.928;2022-09-03T11:36:37;101032.59;;;24.41;35.01
66945;BME280;53853;51.982;5.928;2022-09-03T11:39:17;101033.06;;;24.50;34.98
66945;BME280;53853;51.982;5.928;2022-09-03T11:41:57;101032.47;;;24.59;34.64
66945;BME280;53853;51.982;5.928;2022-09-03T11:44:40;101022.28;;;24.67;34.64
66945;BME280;53853;51.982;5.928;2022-09-03T11:47:15;101031.63;;;24.71;34.56
66945;BME280;53853;51.982;5.928;2022-09-03T11:49:46;101031.75;;;24.76;34.86
66945;BME280;53853;51.982;5.928;2022-09-03T11:52:26;101029.72;;;24.83;34.81
66945;BME280;53853;51.982;5.928;2022-09-03T11:54:58;101023.63;;;24.93;33.46
66945;BME280;53853;51.982;5.928;2022-09-03T11:57:28;101023.53;;;25.00;33.51
66945;BME280;53853;51.982;5.928;2022-09-03T12:00:11;101035.00;;;25.02;33.76
66945;BME280;53853;51.982;5.928;2022-09-03T12:02:45;101029.56;;;25.02;34.12
66945;BME280;53853;51.982;5.928;2022-09-03T12:05:23;101029.06;;;25.05;34.61
66945;BME280;53853;51.982;5.928;2022-09-03T12:08:08;101019.00;;;25.05;33.93
66945;BME280;53853;51.982;5.928;2022-09-03T12:10:50;101023.13;;;25.08;34.45
66945;BME280;53853;51.982;5.928;2022-09-03T12:13:34;101022.91;;;25.09;34.03
66945;BME280;53853;51.982;5.928;2022-09-03T12:16:34;101022.28;;;25.19;33.81
66945;BME280;53853;51.982;5.928;2022-09-03T12:19:14;101018.44;;;25.20;34.17
66945;BME280;53853;51.982;5.928;2022-09-03T12:21:49;101018.19;;;25.22;33.52
66945;BME280;53853;51.982;5.928;2022-09-03T12:24:19;101016.91;;;25.24;33.51
66945;BME280;53853;51.982;5.928;2022-09-03T12:26:49;101019.38;;;25.26;34.22
66945;BME280;53853;51.982;5.928;2022-09-03T12:29:24;101018.94;;;25.29;33.14
66945;BME280;53853;51.982;5.928;2022-09-03T12:32:06;101024.59;;;25.27;32.68
66945;BME280;53853;51.982;5.928;2022-09-03T12:34:37;101021.28;;;25.25;33.04
66945;BME280;53853;51.982;5.928;2022-09-03T12:37:18;101018.31;;;25.27;33.64
66945;BME280;53853;51.982;5.928;2022-09-03T12:39:51;101014.91;;;25.31;33.47
66945;BME280;53853;51.982;5.928;2022-09-03T12:42:24;101017.72;;;25.37;33.26
66945;BME280;53853;51.982;5.928;2022-09-03T12:44:55;101006.22;;;25.35;33.41
66945;BME280;53853;51.982;5.928;2022-09-03T12:47:27;101020.44;;;25.37;33.26
66945;BME280;53853;51.982;5.928;2022-09-03T12:50:03;101017.97;;;25.35;33.65
66945;BME280;53853;51.982;5.928;2022-09-03T12:52:35;101013.06;;;25.37;33.54
66945;BME280;53853;51.982;5.928;2022-09-03T12:55:17;101017.81;;;25.42;33.66
66945;BME280;53853;51.982;5.928;2022-09-03T12:57:51;101012.34;;;25.42;33.97
66945;BME280;53853;51.982;5.928;2022-09-03T13:00:23;101007.22;;;25.45;34.19
66945;BME280;53853;51.982;5.928;2022-09-03T13:02:59;101007.09;;;25.52;33.82
66945;BME280;53853;51.982;5.928;2022-09-03T13:05:33;101010.38;;;25.54;34.36
66945;BME280;53853;51.982;5.928;2022-09-03T13:08:05;101006.00;;;25.53;33.94
66945;BME280;53853;51.982;5.928;2022-09-03T13:10:38;101014.25;;;25.58;34.73
66945;BME280;53853;51.982;5.928;2022-09-03T13:13:20;101018.41;;;25.61;33.96
66945;BME280;53853;51.982;5.928;2022-09-03T13:16:27;101014.25;;;25.58;34.18
66945;BME280;53853;51.982;5.928;2022-09-03T13:19:07;101014.63;;;25.62;34.53
66945;BME280;53853;51.982;5.928;2022-09-03T13:21:44;101012.47;;;25.64;34.36
66945;BME280;53853;51.982;5.928;2022-09-03T13:24:38;101013.03;;;25.66;34.30
66945;BME280;53853;51.982;5.928;2022-09-03T13:27:17;101002.22;;;25.71;34.21
66945;BME280;53853;51.982;5.928;2022-09-03T13:30:05;101007.44;;;25.73;34.03